Time;durP1;ratioP1;P1;durP2;ratioP2;P2;SDS_P1;SDS_P2;PMS_P1;PMS_P2;Temp;Humidity;BMP_temperature;BMP_pressure;BME280_temperature;BME280_humidity;BME280_pressure;Samples;Min_cycle;Max_cycle;Signal;HPM_P1;HPM_P2
2023/07/25 00:09:53;;;;;;;12.98;5.97;;;15.90;99.90;;;;;;25591384;23;20087;-45
2023/07/25 00:19:55;;;;;;;11.52;6.40;;;15.70;99.90;;;;;;25591058;23;20009;-58
2023/07/25 00:29:57;;;;;;;8.32;5.68;;;15.40;99.90;;;;;;25590597;23;20005;-57
2023/07/25 00:39:58;;;;;;;11.00;5.55;;;15.50;99.90;;;;;;25589946;23;20032;-57
2023/07/25 00:50:00;;;;;;;9.27;5.20;;;15.90;99.90;;;;;;25590174;23;20001;-48
2023/07/25 01:00:03;;;;;;;8.27;4.25;;;16.00;99.90;;;;;;25589396;23;20001;-56
2023/07/25 01:10:07;;;;;;;6.93;4.00;;;16.10;99.90;;;;;;25588880;23;20063;-57
2023/07/25 01:20:10;;;;;;;9.30;4.57;;;15.90;99.90;;;;;;25562945;23;20005;-57
2023/07/25 01:30:13;;;;;;;8.93;4.68;;;15.70;99.90;;;;;;25589164;23;20009;-56
2023/07/25 01:40:15;;;;;;;7.00;4.10;;;15.40;99.90;;;;;;25588418;23;20078;-51
2023/07/25 01:50:17;;;;;;;9.38;5.40;;;15.40;99.90;;;;;;25588765;23;20375;-58
2023/07/25 02:00:19;;;;;;;13.57;5.97;;;15.60;99.90;;;;;;25561760;23;20075;-57
2023/07/25 02:10:21;;;;;;;10.38;5.22;;;15.60;99.90;;;;;;25588255;23;20083;-49
2023/07/25 02:20:25;;;;;;;9.23;5.07;;;15.80;99.90;;;;;;25593516;23;20005;-56
2023/07/25 02:30:27;;;;;;;11.55;5.53;;;15.90;99.90;;;;;;25569861;23;20008;-47
2023/07/25 02:40:29;;;;;;;9.82;4.45;;;16.00;99.90;;;;;;25594652;23;20012;-46
2023/07/25 02:50:31;;;;;;;9.35;4.60;;;16.00;99.90;;;;;;25594415;23;20447;-58
2023/07/25 03:00:33;;;;;;;9.88;4.95;;;15.90;99.90;;;;;;25594108;23;20044;-58
2023/07/25 03:10:35;;;;;;;14.38;6.32;;;16.00;99.90;;;;;;25593747;23;20012;-58
2023/07/25 03:20:37;;;;;;;16.75;9.52;;;16.10;99.90;;;;;;25593265;23;20001;-58
2023/07/25 03:31:12;;;;;;;23.40;11.85;;;16.30;99.90;;;;;;25592420;23;20332;-53
2023/07/25 03:41:14;;;;;;;0.10;0.10;;;16.30;99.90;;;;;;25509433;23;20515;-49
2023/07/25 03:51:16;;;;;;;0.15;0.10;;;13.70;99.90;;;;;;25467284;23;20488;-58
2023/07/25 04:01:18;;;;;;;0.73;0.30;;;13.90;99.90;;;;;;25468466;23;20341;-59
2023/07/25 04:11:19;;;;;;;1.63;0.30;;;14.20;99.90;;;;;;25468204;23;20433;-58
2023/07/25 04:21:21;;;;;;;1.67;0.40;;;14.60;99.90;;;;;;25467945;23;20017;-58
2023/07/25 04:31:23;;;;;;;0.77;0.47;;;14.90;99.90;;;;;;25475393;23;20035;-57
2023/07/25 04:41:25;;;;;;;1.25;0.60;;;14.60;99.90;;;;;;25563431;23;20425;-56
2023/07/25 04:51:27;;;;;;;1.70;0.40;;;15.50;99.90;;;;;;25589942;23;20067;-57
2023/07/25 05:01:29;;;;;;;0.80;0.40;;;15.50;99.90;;;;;;25589501;23;20005;-57
2023/07/25 05:11:31;;;;;;;1.00;0.50;;;15.00;99.90;;;;;;25563142;23;20059;-56
2023/07/25 05:21:32;;;;;;;2.00;0.60;;;14.80;99.90;;;;;;25589268;23;20013;-58
2023/07/25 05:31:34;;;;;;;1.88;0.70;;;14.50;99.90;;;;;;25588421;23;20013;-46
2023/07/25 05:41:38;;;;;;;1.13;0.30;;;14.20;99.90;;;;;;25588674;23;20017;-58
2023/07/25 05:51:39;;;;;;;0.98;0.43;;;14.10;99.90;;;;;;25589996;23;20009;-58
2023/07/25 06:01:41;;;;;;;1.27;0.60;;;15.10;99.90;;;;;;25596473;23;20013;-48
2023/07/25 06:11:43;;;;;;;1.40;0.63;;;14.40;99.90;;;;;;25596040;23;20013;-56
2023/07/25 06:21:45;;;;;;;1.52;0.68;;;13.70;99.90;;;;;;25595366;23;20012;-52
2023/07/25 06:31:47;;;;;;;0.50;0.30;;;13.50;99.90;;;;;;25595019;23;20381;-56
2023/07/25 06:41:49;;;;;;;0.95;0.65;;;14.90;99.90;;;;;;25594722;23;20005;-50
2023/07/25 06:51:55;;;;;;;1.45;1.00;;;17.00;99.90;;;;;;25567737;23;20510;-54
2023/07/25 07:01:57;;;;;;;2.95;1.45;;;17.30;99.90;;;;;;25595198;23;20016;-57
2023/07/25 07:11:59;;;;;;;3.70;1.85;;;19.60;99.90;;;;;;25567628;23;20005;-56
2023/07/25 07:22:01;;;;;;;3.97;2.25;;;20.50;99.90;;;;;;25593321;23;20009;-57
2023/07/25 07:32:03;;;;;;;8.00;4.60;;;18.10;99.90;;;;;;25592763;23;20012;-57
2023/07/25 07:42:05;;;;;;;8.48;5.70;;;16.50;99.90;;;;;;25592563;23;20009;-56
2023/07/25 07:52:07;;;;;;;11.70;6.07;;;16.00;99.90;;;;;;25591914;23;20437;-56
2023/07/25 08:02:09;;;;;;;11.65;6.50;;;16.00;99.90;;;;;;25591791;23;20016;-56
2023/07/25 08:12:11;;;;;;;10.85;5.72;;;16.00;99.90;;;;;;25591245;23;20079;-47
2023/07/25 08:22:13;;;;;;;17.10;7.53;;;16.20;99.90;;;;;;25590759;23;20005;-56
2023/07/25 08:32:15;;;;;;;17.92;8.40;;;16.80;99.90;;;;;;25589475;23;20016;-56
2023/07/25 08:42:19;;;;;;;16.02;9.18;;;17.40;99.90;;;;;;25589765;23;20503;-57
2023/07/25 08:52:24;;;;;;;3.97;1.13;;;17.80;99.90;;;;;;25563435;23;20009;-57
2023/07/25 09:02:26;;;;;;;3.20;1.20;;;16.70;99.90;;;;;;25589142;23;20551;-48
2023/07/25 09:12:29;;;;;;;3.03;0.77;;;16.80;99.90;;;;;;25588790;23;20448;-57
2023/07/25 09:22:33;;;;;;;2.25;0.90;;;18.60;99.90;;;;;;25588972;23;20005;-57
2023/07/25 09:32:36;;;;;;;1.92;0.85;;;20.80;99.90;;;;;;25597255;23;20009;-58
2023/07/25 09:42:42;;;;;;;2.63;0.65;;;22.10;99.90;;;;;;25596901;23;20044;-59
2023/07/25 09:52:44;;;;;;;1.95;1.10;;;23.00;99.90;;;;;;25637934;23;20005;-59
2023/07/25 10:02:46;;;;;;;2.08;0.80;;;22.80;99.90;;;;;;25596369;23;20008;-58
2023/07/25 10:12:48;;;;;;;2.60;1.63;;;21.60;99.90;;;;;;25595992;23;20009;-58
2023/07/25 10:22:50;;;;;;;3.35;1.83;;;20.90;99.90;;;;;;25338313;23;20049;-59
2023/07/25 10:32:56;;;;;;;4.72;2.20;;;23.00;99.90;;;;;;25337953;23;20022;-59
2023/07/25 10:42:59;;;;;;;4.88;2.00;;;23.80;99.90;;;;;;25343353;23;20010;-59
2023/07/25 10:53:14;;;;;;;4.45;1.70;;;24.90;99.90;;;;;;25541908;23;20005;-60
2023/07/25 11:03:27;;;;;;;5.70;2.58;;;25.90;99.90;;;;;;25637023;23;20009;-60
2023/07/25 11:13:32;;;;;;;7.18;3.40;;;26.60;99.90;;;;;;25635014;23;20005;-60
2023/07/25 11:23:35;;;;;;;4.30;2.75;;;26.90;99.80;;;;;;25593186;23;20008;-60
2023/07/25 11:33:38;;;;;;;4.90;3.17;;;26.70;99.90;;;;;;25592720;23;20013;-60
2023/07/25 11:43:40;;;;;;;8.77;4.30;;;26.90;99.90;;;;;;25592391;23;20012;-51
2023/07/25 11:53:44;;;;;;;2.92;1.67;;;26.80;99.90;;;;;;25565574;23;20013;-59
2023/07/25 12:03:48;;;;;;;2.00;1.80;;;26.90;99.90;;;;;;25591764;23;20009;-59
2023/07/25 12:13:55;;;;;;;3.83;1.80;;;25.90;99.90;;;;;;25591314;23;20015;-59
2023/07/25 12:23:59;;;;;;;;;;;25.20;99.90;;;;;;25632347;23;20028;-59
2023/07/25 12:34:00;;;;;;;3.33;2.15;;;24.30;99.90;;;;;;25590425;23;19908;-59
2023/07/25 12:44:02;;;;;;;5.45;3.20;;;24.30;99.90;;;;;;25563985;23;20009;-59
2023/07/25 12:54:04;;;;;;;5.57;3.20;;;24.50;99.90;;;;;;25589922;23;20100;-59
2023/07/25 13:04:06;;;;;;;3.65;2.60;;;25.00;99.90;;;;;;25562688;23;20012;-51
2023/07/25 13:14:08;;;;;;;3.13;2.40;;;25.40;99.90;;;;;;25589605;23;20005;-49
2023/07/25 13:24:10;;;;;;;5.43;3.20;;;25.40;99.90;;;;;;25589075;23;20009;-59
2023/07/25 13:34:12;;;;;;;6.75;2.72;;;24.80;99.90;;;;;;25588961;23;20020;-59
2023/07/25 13:44:14;;;;;;;6.03;2.58;;;24.40;99.90;;;;;;25588509;23;20091;-59
2023/07/25 13:54:18;;;;;;;7.05;2.67;;;24.10;98.60;;;;;;25588540;23;20009;-59
2023/07/25 14:04:20;;;;;;;4.50;2.50;;;24.40;97.80;;;;;;25588229;23;20005;-51
2023/07/25 14:14:22;;;;;;;3.58;2.30;;;23.80;96.50;;;;;;25592420;23;20379;-59
2023/07/25 14:24:25;;;;;;;3.95;2.28;;;23.30;96.70;;;;;;25569433;23;20009;-59
2023/07/25 14:34:26;;;;;;;3.47;2.30;;;22.80;99.90;;;;;;25595367;23;20437;-49
2023/07/25 14:44:28;;;;;;;3.58;2.42;;;22.80;97.40;;;;;;25594973;23;20005;-59
2023/07/25 14:54:30;;;;;;;4.70;2.30;;;22.90;99.70;;;;;;25594445;23;20093;-59
2023/07/25 15:04:32;;;;;;;2.97;2.17;;;22.90;99.90;;;;;;25594317;23;20032;-59
2023/07/25 15:14:34;;;;;;;4.40;2.60;;;22.40;99.90;;;;;;25593801;23;20009;-52
2023/07/25 15:24:36;;;;;;;3.25;2.25;;;22.60;99.90;;;;;;25592584;23;20009;-59
2023/07/25 15:34:38;;;;;;;4.97;3.92;;;22.40;99.90;;;;;;25592874;23;20017;-59
2023/07/25 15:44:40;;;;;;;7.32;4.03;;;21.50;99.90;;;;;;25592434;23;20016;-59
2023/07/25 15:54:42;;;;;;;6.80;4.57;;;21.00;99.90;;;;;;25592155;23;20009;-48
2023/07/25 16:04:43;;;;;;;7.35;5.00;;;20.40;99.90;;;;;;25591840;23;20064;-51
2023/07/25 16:14:45;;;;;;;9.65;6.75;;;20.80;99.90;;;;;;25591339;23;20328;-59
2023/07/25 16:24:48;;;;;;;12.73;8.93;;;20.70;99.90;;;;;;25590954;23;20008;-59
2023/07/25 16:34:50;;;;;;;14.73;10.10;;;20.40;99.90;;;;;;25591447;23;20013;-59
2023/07/25 16:44:54;;;;;;;13.27;9.20;;;19.90;99.90;;;;;;25590184;23;20527;-59
2023/07/25 16:54:56;;;;;;;14.48;10.68;;;19.60;99.90;;;;;;25589825;23;20329;-59
2023/07/25 17:05:01;;;;;;;17.83;10.90;;;19.50;99.90;;;;;;25589628;23;20032;-59
2023/07/25 17:15:04;;;;;;;15.52;10.90;;;19.10;99.90;;;;;;25589250;23;20436;-59
2023/07/25 17:25:07;;;;;;;11.25;8.82;;;19.10;99.90;;;;;;25589041;23;20012;-59
2023/07/25 17:35:10;;;;;;;16.67;10.50;;;19.30;99.90;;;;;;25589099;23;20012;-59
2023/07/25 17:45:12;;;;;;;16.77;11.60;;;19.10;99.90;;;;;;25589639;23;20507;-59
2023/07/25 17:55:13;;;;;;;15.43;12.32;;;18.60;99.90;;;;;;25596861;23;20091;-59
2023/07/25 18:05:15;;;;;;;23.48;13.15;;;18.20;99.90;;;;;;25596218;23;20036;-59
2023/07/25 18:15:17;;;;;;;18.75;12.63;;;17.70;99.90;;;;;;25596575;23;20116;-47
2023/07/25 18:25:20;;;;;;;11.77;7.25;;;17.00;99.90;;;;;;25595717;23;20005;-59
2023/07/25 18:35:23;;;;;;;9.70;5.95;;;16.20;99.90;;;;;;25595181;23;20456;-58
2023/07/25 18:45:25;;;;;;;8.32;4.53;;;15.40;99.90;;;;;;25595115;23;20064;-58
2023/07/25 18:55:27;;;;;;;7.53;4.28;;;14.90;99.90;;;;;;25594390;23;20388;-50
2023/07/25 19:05:30;;;;;;;5.95;4.05;;;14.60;99.90;;;;;;25593781;23;20009;-58
2023/07/25 19:15:32;;;;;;;5.38;3.75;;;14.60;99.90;;;;;;25593979;23;20063;-58
2023/07/25 19:25:34;;;;;;;8.40;4.38;;;15.00;99.90;;;;;;25593390;23;20001;-58
2023/07/25 19:35:36;;;;;;;6.70;4.28;;;14.70;99.90;;;;;;25592657;23;20082;-58
2023/07/25 19:45:38;;;;;;;7.32;3.95;;;14.30;99.90;;;;;;25592580;23;20083;-49
2023/07/25 19:55:40;;;;;;;7.03;4.03;;;13.80;99.90;;;;;;25592319;23;19997;-46
2023/07/25 20:05:43;;;;;;;8.32;5.32;;;13.60;99.90;;;;;;25591725;23;20005;-50
2023/07/25 20:15:48;;;;;;;11.32;6.32;;;13.70;99.90;;;;;;25514838;23;20012;-50
2023/07/25 20:25:51;;;;;;;2.38;1.05;;;14.20;99.90;;;;;;25590855;23;20005;-45
2023/07/25 20:35:56;;;;;;;1.13;0.55;;;14.40;99.90;;;;;;25611167;23;20021;-57
2023/07/25 20:46:03;;;;;;;2.05;0.80;;;12.60;99.90;;;;;;25590165;23;20009;-57
2023/07/25 20:56:06;;;;;;;1.23;0.70;;;11.90;99.90;;;;;;25630849;23;20009;-46
2023/07/25 21:06:09;;;;;;;1.45;0.68;;;11.70;99.90;;;;;;25589439;23;20005;-50
2023/07/25 21:16:12;;;;;;;0.90;0.60;;;11.50;99.90;;;;;;25589134;23;20056;-59
2023/07/25 21:26:16;;;;;;;1.23;0.60;;;11.70;99.90;;;;;;25588189;23;20025;-58
2023/07/25 21:36:18;;;;;;;0.90;0.40;;;11.80;99.90;;;;;;25589260;23;20020;-58
2023/07/25 21:46:20;;;;;;;1.95;0.47;;;11.90;99.90;;;;;;25588425;23;20016;-57
2023/07/25 21:56:22;;;;;;;0.60;0.30;;;12.00;99.90;;;;;;25588612;23;20452;-58
2023/07/25 22:06:24;;;;;;;0.95;0.30;;;12.10;99.90;;;;;;25588736;23;20028;-58
2023/07/25 22:16:26;;;;;;;1.83;0.20;;;11.90;99.90;;;;;;25588487;23;20262;-59
2023/07/25 22:26:28;;;;;;;0.43;0.17;;;11.70;99.90;;;;;;25587969;23;20005;-58
2023/07/25 22:36:30;;;;;;;0.52;0.20;;;11.70;99.90;;;;;;25592508;23;20064;-58
2023/07/25 22:46:32;;;;;;;0.50;0.10;;;12.00;99.90;;;;;;25594965;23;20006;-57
2023/07/25 22:56:34;;;;;;;1.77;0.20;;;12.00;99.90;;;;;;25594357;23;20079;-57
2023/07/25 23:06:37;;;;;;;0.30;0.00;;;11.80;99.90;;;;;;25594104;23;20005;-47
2023/07/25 23:16:39;;;;;;;1.95;0.10;;;11.80;99.90;;;;;;25593551;23;20035;-48
2023/07/25 23:26:41;;;;;;;2.80;0.10;;;11.80;99.90;;;;;;25593112;23;20005;-47
2023/07/25 23:36:43;;;;;;;0.10;0.00;;;12.00;99.90;;;;;;25592751;23;20325;-56
2023/07/25 23:46:45;;;;;;;0.80;0.15;;;12.20;99.90;;;;;;25592222;23;20379;-47
2023/07/25 23:56:47;;;;;;;1.25;0.03;;;12.40;99.90;;;;;;25591920;23;20009;-47
